Terminal Aerodrome Forecast
Issued by NWS

Home | Current Version | Previous Version | Text Only | Print | Product List | Glossary On
Versions: 1 2 3 4 5 6 7 8 9 10 11 12 13 14 15 16 17 18 19 20 21
521
FTUS44 KTSA 192320
TAFXNA
TAF
KXNA 192320Z 2000/2024 18005KT P6SM SCT050
     FM200100 00000KT P6SM SCT250
     FM201500 20006KT P6SM FEW250
     FM201900 20008KT P6SM FEW050=

USA.gov is the U.S. government's official web portal to all federal, state and local government web resources and services.